Time;durP1;ratioP1;P1;durP2;ratioP2;P2;SDS_P1;SDS_P2;PMS_P1;PMS_P2;Temp;Humidity;BMP_temperature;BMP_pressure;BME280_temperature;BME280_humidity;BME280_pressure;Samples;Min_cycle;Max_cycle;Signal;HPM_P1;HPM_P2
2022/08/26 00:01:23;;;;;;;9.32;3.70;;;;;;;20.00;86.35;101399.28;5068242;22;20056;-87
2022/08/26 00:03:48;;;;;;;8.53;3.40;;;;;;;19.99;84.89;101397.56;5072347;28;20115;-86
2022/08/26 00:06:13;;;;;;;5.57;2.80;;;;;;;19.97;84.83;101402.06;5072493;28;20027;-86
2022/08/26 00:08:39;;;;;;;10.43;3.60;;;;;;;19.94;86.01;101407.47;5073105;28;20041;-85
2022/08/26 00:11:05;;;;;;;5.90;3.15;;;;;;;19.90;86.22;101412.03;5072882;28;20035;-86
2022/08/26 00:13:32;;;;;;;5.93;3.17;;;;;;;19.88;85.37;101411.25;5072365;28;20027;-86
2022/08/26 00:15:57;;;;;;;;;;;;;;;19.88;85.67;101410.38;5072946;28;20028;-87
2022/08/26 00:18:22;;;;;;;5.50;3.20;;;;;;;19.85;84.75;101407.88;5072997;28;19935;-86
2022/08/26 00:20:47;;;;;;;4.53;2.90;;;;;;;19.85;86.06;101407.88;5072362;28;20104;-86
2022/08/26 00:23:13;;;;;;;10.03;4.53;;;;;;;19.78;86.96;101415.19;5072557;28;20025;-86
2022/08/26 00:25:38;;;;;;;7.73;4.03;;;;;;;19.79;86.70;101414.28;5072702;28;20024;-85
2022/08/26 00:28:05;;;;;;;9.73;4.57;;;;;;;19.73;86.97;101407.50;5072150;28;20515;-87
2022/08/26 00:30:31;;;;;;;;;;;;;;;19.62;87.85;101419.41;5073412;28;20060;-86
2022/08/26 00:32:57;;;;;;;7.55;4.18;;;;;;;19.64;86.43;101413.19;5072652;28;19916;-85
2022/08/26 00:35:24;;;;;;;10.50;4.72;;;;;;;19.61;87.50;101418.56;5071669;28;20598;-86
2022/08/26 00:37:50;;;;;;;6.22;4.10;;;;;;;19.61;86.14;101418.56;5072683;28;20118;-86
2022/08/26 00:40:22;;;;;;;5.53;3.42;;;;;;;19.63;85.78;101427.25;5072983;28;20017;-86
2022/08/26 00:42:48;;;;;;;4.15;3.10;;;;;;;19.65;86.49;101427.19;5071526;28;20035;-86
2022/08/26 00:45:14;;;;;;;7.32;4.47;;;;;;;19.59;86.37;101421.25;5072884;28;20028;-85
2022/08/26 00:47:46;;;;;;;9.13;4.43;;;;;;;19.59;86.24;101426.53;5072423;28;20032;-85
2022/08/26 00:50:17;;;;;;;5.45;3.30;;;;;;;19.59;86.37;101426.53;5071497;28;20119;-86
2022/08/26 00:52:43;;;;;;;3.92;2.97;;;;;;;19.61;86.50;101431.75;5072695;28;20024;-86
2022/08/26 00:55:20;;;;;;;9.88;4.63;;;;;;;19.55;87.19;101434.63;5072722;28;20054;-86
2022/08/26 00:57:47;;;;;;;6.28;3.65;;;;;;;19.56;85.73;101431.06;5072081;28;20025;-86
2022/08/26 01:00:19;;;;;;;4.82;3.03;;;;;;;19.56;85.86;101426.69;5072237;28;20035;-86
2022/08/26 01:02:46;;;;;;;8.52;4.32;;;;;;;19.51;87.45;101431.28;5071401;28;20037;-85
2022/08/26 01:05:14;;;;;;;9.38;4.50;;;;;;;19.48;87.35;101423.50;5072568;28;20070;-86
2022/08/26 01:07:39;;;;;;;6.95;3.80;;;;;;;19.47;87.18;101420.94;5072258;28;20102;-86
2022/08/26 01:10:10;;;;;;;7.43;3.90;;;;;;;19.42;87.71;101429.03;5070839;28;20457;-87
2022/08/26 01:12:41;;;;;;;6.95;3.45;;;;;;;19.43;87.14;101428.97;5072889;28;20032;-86
2022/08/26 01:15:14;;;;;;;8.23;4.07;;;;;;;19.42;87.70;101429.88;5072570;28;20082;-85
2022/08/26 01:17:40;;;;;;;5.53;3.60;;;;;;;19.43;86.74;101426.34;5075420;28;20546;-85
2022/08/26 01:20:16;;;;;;;10.95;3.92;;;;;;;19.41;87.46;101425.56;5075667;28;20029;-87
2022/08/26 01:23:00;;;;;;;6.30;3.30;;;;;;;19.43;87.52;101423.72;5076498;28;20365;-86
2022/08/26 01:25:28;;;;;;;3.65;2.95;;;;;;;19.45;86.90;101428.91;5075348;28;20032;-86
2022/08/26 01:27:57;;;;;;;6.10;2.95;;;;;;;19.47;85.90;101427.09;5075529;28;20047;-85
2022/08/26 01:30:24;;;;;;;3.67;2.42;;;;;;;19.52;86.17;101424.25;5076411;28;20020;-86
2022/08/26 01:32:50;;;;;;;6.97;3.33;;;;;;;19.51;86.45;101423.38;5075358;28;20074;-86
2022/08/26 01:35:16;;;;;;;4.93;3.03;;;;;;;19.53;86.55;101413.63;5075853;28;20028;-86
2022/08/26 01:37:42;;;;;;;8.15;3.50;;;;;;;19.50;87.34;101416.41;5075164;28;20430;-85
2022/08/26 01:40:12;;;;;;;7.83;3.17;;;;;;;19.50;87.06;101408.50;5075552;28;20056;-85
2022/08/26 01:42:41;;;;;;;7.65;3.70;;;;;;;19.48;87.43;101417.41;5076130;28;20282;-86
2022/08/26 01:45:13;;;;;;;7.22;3.35;;;;;;;19.48;86.78;101422.66;5074649;28;20021;-86
2022/08/26 01:47:41;;;;;;;6.28;2.90;;;;;;;19.49;86.54;101422.59;5075436;28;20032;-86
2022/08/26 01:50:12;;;;;;;4.30;2.90;;;;;;;19.50;87.20;101432.19;5075825;28;20024;-86
2022/08/26 01:52:41;;;;;;;5.97;2.90;;;;;;;19.49;87.02;101424.38;5074580;28;20480;-86
2022/08/26 01:55:08;;;;;;;4.30;2.60;;;;;;;19.49;86.63;101425.22;5075097;28;20059;-86
2022/08/26 01:57:34;;;;;;;4.25;2.50;;;;;;;19.51;86.63;101422.53;5075935;28;20040;-86
2022/08/26 02:00:07;;;;;;;3.95;2.33;;;;;;;19.53;86.26;101421.53;5074721;28;20039;-86
2022/08/26 02:02:32;;;;;;;4.00;2.20;;;;;;;19.54;86.15;101417.97;5075496;28;20493;-86
2022/08/26 02:05:03;;;;;;;5.87;2.80;;;;;;;19.53;86.46;101424.16;5075161;28;20062;-85
2022/08/26 02:07:30;;;;;;;5.78;2.65;;;;;;;19.51;87.00;101426.00;5074954;28;20032;-86
2022/08/26 02:09:55;;;;;;;5.13;2.55;;;;;;;19.51;86.16;101426.00;5074711;28;20023;-86
2022/08/26 02:12:21;;;;;;;6.47;3.00;;;;;;;19.47;86.89;101424.47;5075311;28;20026;-86
2022/08/26 02:14:52;;;;;;;4.00;2.40;;;;;;;19.49;85.92;101424.38;5074594;28;20040;-86
2022/08/26 02:17:20;;;;;;;3.45;2.55;;;;;;;19.48;86.72;101427.94;5075453;28;20035;-86
2022/08/26 02:19:48;;;;;;;2.67;2.20;;;;;;;19.50;85.59;101420.81;5075181;28;20457;-86
2022/08/26 02:22:17;;;;;;;2.67;2.00;;;;;;;19.51;86.10;101435.69;5074284;28;20029;-86
2022/08/26 02:24:50;;;;;;;2.67;2.00;;;;;;;19.52;86.39;101432.16;5074868;28;20020;-86
2022/08/26 02:27:18;;;;;;;4.35;2.20;;;;;;;19.50;86.41;101441.88;5073645;28;20040;-86
2022/08/26 02:29:46;;;;;;;3.97;1.98;;;;;;;19.50;85.54;101442.72;5074816;28;20400;-86
2022/08/26 02:32:13;;;;;;;1.90;1.60;;;;;;;19.52;84.84;101445.31;5074453;28;20028;-86
2022/08/26 02:34:39;;;;;;;1.52;1.42;;;;;;;19.53;84.82;101450.50;5074155;28;20056;-86
2022/08/26 02:37:08;;;;;;;3.43;1.90;;;;;;;19.51;85.08;101452.34;5074931;28;20105;-86
2022/08/26 02:39:35;;;;;;;1.50;1.40;;;;;;;19.54;84.60;101448.72;5074420;28;20318;-86
2022/08/26 02:42:01;;;;;;;1.73;1.30;;;;;;;19.55;83.81;101456.56;5073891;28;20036;-86
2022/08/26 02:44:27;;;;;;;1.00;1.00;;;;;;;19.56;83.78;101463.53;5074773;28;20027;-86
2022/08/26 02:46:53;;;;;;;1.17;0.90;;;;;;;19.57;83.72;101454.72;5074304;28;20029;-86
2022/08/26 02:49:19;;;;;;;0.70;0.70;;;;;;;19.56;83.67;101457.41;5073968;28;20038;-86
2022/08/26 02:51:45;;;;;;;0.70;0.70;;;;;;;19.56;83.20;101447.75;5074780;28;20361;-86
2022/08/26 02:54:11;;;;;;;0.75;0.70;;;;;;;19.57;83.33;101454.72;5074203;28;20064;-86
2022/08/26 02:56:36;;;;;;;2.58;1.67;;;;;;;19.50;85.22;101448.00;5073110;28;20097;-86
2022/08/26 02:59:02;;;;;;;2.60;2.00;;;;;;;19.49;85.32;101440.16;5074065;28;20031;-86
2022/08/26 03:01:31;;;;;;;1.37;1.27;;;;;;;19.47;84.35;101444.63;5074068;28;20048;-85
2022/08/26 03:03:56;;;;;;;3.35;1.70;;;;;;;19.43;84.42;101455.28;5073658;28;20488;-86
2022/08/26 03:06:23;;;;;;;1.52;1.27;;;;;;;19.43;84.11;101444.75;5073914;28;20031;-85
2022/08/26 03:08:49;;;;;;;1.05;0.88;;;;;;;19.44;83.61;101443.00;5074107;28;20114;-86
2022/08/26 03:11:14;;;;;;;0.77;0.77;;;;;;;19.43;83.31;101444.75;5073531;28;20097;-86
2022/08/26 03:13:40;;;;;;;0.87;0.70;;;;;;;19.43;83.57;101444.75;5073871;28;20025;-86
2022/08/26 03:16:06;;;;;;;0.90;0.80;;;;;;;19.43;83.17;101449.19;5073119;28;20028;-85
2022/08/26 03:18:31;;;;;;;0.50;0.50;;;;;;;19.44;83.24;101448.28;5074020;28;20021;-86
2022/08/26 03:20:57;;;;;;;0.93;0.40;;;;;;;19.44;83.25;101445.63;5073809;28;20032;-86
2022/08/26 03:23:23;;;;;;;0.50;0.50;;;;;;;19.44;82.57;101448.28;5073270;28;20017;-86
2022/08/26 03:25:50;;;;;;;0.30;0.30;;;;;;;19.45;83.25;101445.56;5073352;28;20024;-85
2022/08/26 03:28:15;;;;;;;0.88;0.40;;;;;;;19.45;84.09;101447.34;5073919;28;20031;-86
2022/08/26 03:30:41;;;;;;;0.40;0.40;;;;;;;19.44;82.70;101448.28;5073072;28;20116;-86
2022/08/26 03:33:10;;;;;;;0.40;0.40;;;;;;;19.45;83.23;101452.63;5072939;28;20103;-86
2022/08/26 03:35:35;;;;;;;1.02;0.60;;;;;;;19.45;82.68;101447.34;5074002;28;20755;-85
2022/08/26 03:38:02;;;;;;;0.33;0.33;;;;;;;19.46;82.88;101451.69;5072455;28;20036;-86
2022/08/26 03:40:27;;;;;;;0.30;0.30;;;;;;;19.46;82.91;101454.31;5072948;28;20170;-85
2022/08/26 03:42:52;;;;;;;2.57;0.90;;;;;;;19.44;83.20;101458.78;5072897;28;20025;-87
2022/08/26 03:45:19;;;;;;;0.43;0.43;;;;;;;19.44;82.65;101454.38;5073096;28;20055;-86
2022/08/26 03:47:46;;;;;;;0.57;0.40;;;;;;;19.46;82.76;101459.59;5073883;28;20025;-87
2022/08/26 03:50:15;;;;;;;1.90;1.13;;;;;;;19.42;83.50;101464.09;5065091;28;20054;-87
2022/08/26 03:52:40;;;;;;;1.73;0.90;;;;;;;19.40;83.82;101451.94;5072947;28;20028;-87
2022/08/26 03:55:06;;;;;;;0.65;0.65;;;;;;;19.39;83.14;101461.63;5073609;28;20020;-87
2022/08/26 03:57:32;;;;;;;1.05;1.00;;;;;;;19.37;84.21;101458.19;5073548;28;20082;-86
2022/08/26 03:59:57;;;;;;;1.40;1.27;;;;;;;19.36;84.31;101458.28;5072369;28;20062;-87
2022/08/26 04:02:23;;;;;;;1.57;1.23;;;;;;;19.32;84.27;101459.31;5073003;28;20155;-87
2022/08/26 04:04:48;;;;;;;1.13;1.00;;;;;;;19.30;84.36;101464.66;5073282;28;20417;-88
2022/08/26 04:07:14;;;;;;;0.90;0.90;;;;;;;19.28;83.45;101461.22;5072163;28;20059;-88
2022/08/26 04:09:39;;;;;;;1.37;1.10;;;;;;;19.27;83.99;101460.34;5073031;28;20024;-88
2022/08/26 04:12:05;;;;;;;1.17;1.07;;;;;;;19.28;84.34;101463.84;5073177;28;20028;-87
2022/08/26 04:14:31;;;;;;;2.73;1.40;;;;;;;19.26;84.60;101461.28;5072600;28;20044;-88
2022/08/26 04:16:56;;;;;;;1.65;0.95;;;;;;;19.25;84.35;101459.56;5073261;28;20029;-88
2022/08/26 04:19:23;;;;;;;0.60;0.60;;;;;;;19.25;84.62;101456.94;5073208;28;20519;-88
2022/08/26 04:21:52;;;;;;;0.68;0.65;;;;;;;19.27;83.98;101459.50;5072675;28;20052;-88
2022/08/26 04:24:19;;;;;;;0.70;0.70;;;;;;;19.28;83.69;101455.97;5073336;28;20024;-88
2022/08/26 04:26:45;;;;;;;0.43;0.43;;;;;;;19.29;83.11;101448.00;5072047;28;20036;-88
2022/08/26 04:29:16;;;;;;;1.55;0.60;;;;;;;19.30;83.72;101456.75;5072493;28;20036;-88
2022/08/26 04:31:41;;;;;;;0.50;0.50;;;;;;;19.32;83.29;101460.16;5073368;28;20024;-88
2022/08/26 04:34:07;;;;;;;0.53;0.40;;;;;;;19.32;83.72;101464.56;5071623;28;20074;-88
2022/08/26 04:36:33;;;;;;;0.73;0.40;;;;;;;19.34;84.18;101457.47;5072607;28;20021;-88
2022/08/26 04:39:01;;;;;;;0.50;0.50;;;;;;;19.33;83.70;101458.41;5072889;28;20045;-87
2022/08/26 04:41:32;;;;;;;0.80;0.50;;;;;;;19.32;84.86;101454.91;5072205;28;20465;-88
2022/08/26 04:43:58;;;;;;;0.73;0.70;;;;;;;19.33;83.76;101455.78;5072179;28;20052;-88
2022/08/26 04:46:24;;;;;;;1.33;0.80;;;;;;;19.31;83.58;101462.88;5072354;28;20056;-88
2022/08/26 04:48:51;;;;;;;2.63;1.20;;;;;;;19.32;85.36;101461.94;5072311;28;20052;-87
2022/08/26 04:51:19;;;;;;;2.45;1.33;;;;;;;19.32;84.14;101464.56;5077635;28;20031;-88
2022/08/26 04:53:59;;;;;;;1.52;1.02;;;;;;;19.31;84.55;101468.13;5079178;28;20032;-88
2022/08/26 04:56:26;;;;;;;0.80;0.80;;;;;;;19.31;83.54;101470.75;5072305;28;20453;-87
2022/08/26 04:58:51;;;;;;;2.70;1.48;;;;;;;19.29;85.52;101471.69;5079198;28;20040;-87
2022/08/26 05:01:17;;;;;;;1.53;1.40;;;;;;;19.31;85.19;101471.59;5079609;28;20048;-88
2022/08/26 05:03:43;;;;;;;2.40;1.80;;;;;;;19.26;85.68;101465.69;5078139;28;20033;-87
2022/08/26 05:06:19;;;;;;;1.80;1.47;;;;;;;19.25;84.98;101475.34;5079028;28;20044;-88
2022/08/26 05:08:44;;;;;;;1.42;1.33;;;;;;;19.26;85.41;101470.97;5079009;28;20025;-88
2022/08/26 05:11:10;;;;;;;4.57;1.87;;;;;;;19.21;85.80;101470.28;5079291;28;20031;-88
2022/08/26 05:13:37;;;;;;;1.80;1.33;;;;;;;19.20;84.79;101472.06;5079122;28;20108;-88
2022/08/26 05:16:10;;;;;;;1.20;1.10;;;;;;;19.24;84.27;101478.06;5078387;28;20146;-88
2022/08/26 05:18:47;;;;;;;0.88;0.80;;;;;;;19.24;85.53;101468.41;5079280;28;20021;-87
2022/08/26 05:21:19;;;;;;;1.45;1.35;;;;;;;19.23;84.86;101468.44;5079283;28;20116;-88
2022/08/26 05:23:45;;;;;;;1.00;1.00;;;;;;;19.25;85.22;101471.88;5078813;28;20442;-88
2022/08/26 05:26:10;;;;;;;2.25;1.17;;;;;;;19.24;85.06;101472.78;5079127;28;20028;-88
2022/08/26 05:28:35;;;;;;;1.20;0.90;;;;;;;19.24;84.59;101470.16;5079056;28;20473;-88
2022/08/26 05:31:10;;;;;;;0.87;0.87;;;;;;;19.25;86.28;101475.34;5077377;28;20020;-88
2022/08/26 05:33:35;;;;;;;0.93;0.93;;;;;;;19.26;84.39;101474.44;5079154;28;20040;-88
2022/08/26 05:36:09;;;;;;;0.97;0.97;;;;;;;19.28;86.18;101474.38;5078510;28;20021;-87
2022/08/26 05:38:34;;;;;;;1.27;1.17;;;;;;;19.28;84.85;101480.50;5078477;28;20101;-88
2022/08/26 05:40:59;;;;;;;0.70;0.70;;;;;;;19.31;84.77;101474.22;5078230;28;20532;-88
2022/08/26 05:43:25;;;;;;;1.63;1.27;;;;;;;19.32;85.67;101480.38;5079020;28;20024;-87
2022/08/26 05:45:50;;;;;;;2.33;1.13;;;;;;;19.35;84.86;101485.50;5077968;28;20029;-88
2022/08/26 05:48:18;;;;;;;0.70;0.70;;;;;;;19.35;84.34;101488.97;5079075;28;20021;-88
2022/08/26 05:50:46;;;;;;;0.88;0.88;;;;;;;19.40;84.43;101494.06;5079072;28;20028;-86
2022/08/26 05:53:13;;;;;;;0.70;0.60;;;;;;;19.43;84.71;101497.41;5078567;28;20392;-89
2022/08/26 05:55:50;;;;;;;1.55;0.70;;;;;;;19.46;84.00;101496.44;5079271;28;20043;-88
2022/08/26 05:58:21;;;;;;;1.10;1.10;;;;;;;19.47;84.36;101506.06;5078500;28;20040;-90
2022/08/26 06:01:01;;;;;;;1.42;0.93;;;;;;;19.51;84.61;101504.16;5078448;28;20020;-85
2022/08/26 06:03:27;;;;;;;1.05;1.00;;;;;;;19.53;84.48;101510.22;5074240;28;20028;-85
2022/08/26 06:05:53;;;;;;;2.63;1.17;;;;;;;19.56;84.29;101510.91;5074257;28;20380;-85
2022/08/26 06:08:19;;;;;;;0.77;0.77;;;;;;;19.59;83.92;101507.28;5075428;28;20062;-85
2022/08/26 06:10:52;;;;;;;0.50;0.50;;;;;;;19.65;83.94;101514.06;5075488;28;20036;-85
2022/08/26 06:13:25;;;;;;;0.60;0.60;;;;;;;19.68;84.11;101519.22;5074621;28;20037;-85
2022/08/26 06:15:52;;;;;;;0.77;0.60;;;;;;;19.70;83.96;101518.22;5075321;28;20021;-85
2022/08/26 06:18:23;;;;;;;0.50;0.50;;;;;;;19.72;83.89;101524.28;5075594;28;20028;-86
2022/08/26 06:20:49;;;;;;;0.63;0.50;;;;;;;19.75;83.88;101523.28;5074520;28;20024;-86
2022/08/26 06:26:03;;;;;;;0.95;0.70;;;;;;;19.80;83.17;101516.06;5074407;28;20121;-85
2022/08/26 06:28:28;;;;;;;0.55;0.55;;;;;;;19.85;83.51;101524.59;5074791;28;20024;-85
2022/08/26 06:30:54;;;;;;;1.83;0.90;;;;;;;19.88;83.02;101526.28;5074740;28;20078;-85
2022/08/26 06:33:20;;;;;;;1.33;0.88;;;;;;;19.90;83.06;101530.56;5074104;28;20028;-85
2022/08/26 06:35:46;;;;;;;0.50;0.47;;;;;;;19.95;82.84;101535.63;5074902;28;20039;-85
2022/08/26 06:38:12;;;;;;;0.40;0.40;;;;;;;20.00;82.62;101530.16;5066338;28;20083;-85
2022/08/26 06:40:54;;;;;;;2.28;0.90;;;;;;;20.00;82.44;101535.44;5074119;28;20024;-85
2022/08/26 06:43:22;;;;;;;0.73;0.40;;;;;;;20.02;82.58;101529.16;5067457;28;20492;-87
2022/08/26 06:45:48;;;;;;;1.65;0.80;;;;;;;20.08;82.21;101540.38;5074744;28;20112;-87
2022/08/26 06:48:16;;;;;;;1.65;0.70;;;;;;;20.07;82.27;101539.50;5074033;28;20056;-84
2022/08/26 06:50:42;;;;;;;0.52;0.50;;;;;;;20.09;82.20;101536.81;5074386;28;20135;-82
2022/08/26 06:53:08;;;;;;;0.60;0.60;;;;;;;20.12;82.00;101544.56;5074499;28;20476;-87
2022/08/26 06:55:42;;;;;;;1.30;0.88;;;;;;;20.10;81.72;101536.72;5074140;28;20278;-86
2022/08/26 06:58:08;;;;;;;2.70;1.30;;;;;;;20.08;81.99;101537.72;5074123;28;20029;-86
2022/08/26 07:00:34;;;;;;;2.25;1.55;;;;;;;19.96;81.82;101545.25;5074402;28;20020;-85
2022/08/26 07:02:59;;;;;;;2.67;1.30;;;;;;;19.96;82.15;101541.75;5073517;28;20040;-87
2022/08/26 07:05:25;;;;;;;1.20;1.10;;;;;;;20.00;81.78;101551.22;5074713;28;20410;-86
2022/08/26 07:07:51;;;;;;;3.53;1.43;;;;;;;20.02;81.96;101546.75;5073560;28;20063;-84
2022/08/26 07:10:17;;;;;;;3.47;1.30;;;;;;;20.03;81.39;101551.09;5073952;28;20075;-88
2022/08/26 07:12:42;;;;;;;3.53;1.60;;;;;;;19.95;81.92;101548.81;5074493;28;20028;-86
2022/08/26 07:15:09;;;;;;;1.77;1.40;;;;;;;19.98;81.92;101542.53;5073841;28;20665;-86
2022/08/26 07:17:34;;;;;;;2.28;1.40;;;;;;;20.03;81.88;101540.56;5073331;28;20028;-85
2022/08/26 07:19:59;;;;;;;3.47;1.43;;;;;;;20.08;81.11;101546.47;5073949;28;20029;-85
2022/08/26 07:22:24;;;;;;;3.30;1.57;;;;;;;20.11;81.70;101534.94;5072941;28;20082;-83
2022/08/26 07:24:50;;;;;;;2.73;1.63;;;;;;;20.12;81.33;101547.19;5073949;28;20094;-84
2022/08/26 07:27:15;;;;;;;1.27;0.90;;;;;;;20.17;81.01;101547.84;5074079;28;20487;-84
2022/08/26 07:29:42;;;;;;;1.45;1.30;;;;;;;20.24;80.93;101557.19;5072968;28;20032;-84
2022/08/26 07:32:09;;;;;;;6.97;1.80;;;;;;;20.16;80.58;101552.25;5073540;28;20108;-84
2022/08/26 07:34:36;;;;;;;3.10;1.45;;;;;;;20.17;80.85;101553.97;5073751;28;20066;-84
2022/08/26 07:37:02;;;;;;;1.00;0.90;;;;;;;20.27;81.43;101549.16;5072786;28;20028;-84
2022/08/26 07:39:28;;;;;;;1.73;1.07;;;;;;;20.36;79.99;101561.06;5073866;28;20021;-86
2022/08/26 07:41:54;;;;;;;4.82;1.60;;;;;;;20.35;79.98;101562.00;5073346;28;20025;-85
2022/08/26 07:44:19;;;;;;;2.40;1.17;;;;;;;20.34;79.91;101563.75;5073073;28;20041;-88
2022/08/26 07:46:45;;;;;;;2.53;1.23;;;;;;;20.39;80.00;101570.59;5073325;28;20435;-86
2022/08/26 07:49:10;;;;;;;2.73;1.20;;;;;;;20.44;79.27;101572.13;5073441;28;20477;-87
2022/08/26 07:51:36;;;;;;;2.10;1.30;;;;;;;20.47;78.34;101569.34;5073375;28;20013;-90
2022/08/26 07:54:04;;;;;;;1.60;1.10;;;;;;;20.55;78.50;101570.75;5072932;28;20028;-87
2022/08/26 07:56:29;;;;;;;2.30;1.13;;;;;;;20.63;78.92;101569.50;5073544;28;20358;-85
2022/08/26 07:58:55;;;;;;;4.27;1.27;;;;;;;20.68;77.47;101566.63;5072562;28;20100;-87
2022/08/26 08:01:22;;;;;;;6.40;1.80;;;;;;;20.62;77.78;101577.47;5073165;28;20040;-86
2022/08/26 08:03:52;;;;;;;3.55;1.40;;;;;;;20.64;78.00;101567.69;5073280;28;20027;-86
2022/08/26 08:06:19;;;;;;;2.92;1.30;;;;;;;20.67;77.94;101575.47;5072625;28;20036;-86
2022/08/26 08:08:44;;;;;;;1.00;0.90;;;;;;;20.71;78.05;101577.06;5072930;28;20108;-87
2022/08/26 08:11:10;;;;;;;3.17;1.33;;;;;;;20.75;77.79;101572.53;5073053;28;20060;-88
2022/08/26 08:13:36;;;;;;;3.22;1.38;;;;;;;20.67;77.11;101578.97;5072889;28;20071;-88
2022/08/26 08:16:03;;;;;;;3.28;1.58;;;;;;;20.66;78.19;101584.31;5073310;28;20021;-86
2022/08/26 08:18:28;;;;;;;4.05;1.48;;;;;;;20.68;77.89;101585.09;5073446;28;20118;-87
2022/08/26 08:20:54;;;;;;;3.87;1.37;;;;;;;20.71;77.42;101576.19;5071621;28;20063;-90
2022/08/26 08:23:20;;;;;;;5.88;1.95;;;;;;;20.67;77.04;101575.47;5073615;28;20021;-86
2022/08/26 08:25:45;;;;;;;3.53;1.60;;;;;;;20.62;77.11;101585.38;5071657;28;20024;-85
2022/08/26 08:28:10;;;;;;;3.40;1.60;;;;;;;20.60;77.58;101584.59;5072563;28;20035;-83
2022/08/26 08:30:37;;;;;;;4.53;1.67;;;;;;;20.63;77.24;101587.09;5072861;28;20107;-84
2022/08/26 08:33:03;;;;;;;4.10;1.60;;;;;;;20.65;77.02;101583.47;5067753;28;20028;-84
2022/08/26 08:35:28;;;;;;;2.30;1.33;;;;;;;20.68;77.30;101590.38;5070748;28;20036;-84
2022/08/26 08:37:54;;;;;;;4.20;1.63;;;;;;;20.69;76.51;101594.72;5071305;28;20286;-84
2022/08/26 08:40:21;;;;;;;2.93;1.63;;;;;;;20.68;76.39;101596.50;5071242;28;20481;-84
2022/08/26 08:43:02;;;;;;;1.73;1.33;;;;;;;20.74;76.72;101586.59;5070959;28;20033;-84
2022/08/26 08:45:31;;;;;;;1.30;1.20;;;;;;;20.77;76.46;101591.78;5071021;28;20032;-84
2022/08/26 08:48:01;;;;;;;2.08;1.27;;;;;;;20.80;76.21;101576.66;5069895;28;20380;-84
2022/08/26 08:50:43;;;;;;;1.65;1.00;;;;;;;20.87;75.99;101584.25;5070756;28;20477;-84
2022/08/26 08:53:19;;;;;;;2.80;1.38;;;;;;;20.88;75.29;101583.34;5070794;28;20032;-84
2022/08/26 08:56:22;;;;;;;3.78;1.35;;;;;;;20.86;75.30;101582.56;5071140;28;20035;-84
2022/08/26 08:59:06;;;;;;;4.80;1.45;;;;;;;20.84;74.29;101585.28;5031046;28;20036;-83
2022/08/26 09:01:53;;;;;;;2.20;1.30;;;;;;;20.80;74.91;101579.28;5071405;28;20052;-84
2022/08/26 09:04:44;;;;;;;3.42;1.20;;;;;;;20.83;74.44;101581.75;5065319;28;20029;-84
2022/08/26 09:07:19;;;;;;;1.73;1.15;;;;;;;20.91;75.21;101585.84;5071774;28;20047;-84
2022/08/26 09:10:00;;;;;;;2.85;1.33;;;;;;;20.90;74.56;101584.97;5070268;28;20027;-83
2022/08/26 09:12:29;;;;;;;2.13;1.20;;;;;;;20.95;74.76;101601.47;5072474;28;20154;-83
2022/08/26 09:15:03;;;;;;;2.70;1.40;;;;;;;21.00;74.12;101592.47;5067366;28;20062;-84
2022/08/26 09:17:47;;;;;;;1.70;0.70;;;;;;;21.06;74.65;101600.94;5071542;28;20024;-86
2022/08/26 09:20:26;;;;;;;7.40;1.70;;;;;;;21.03;73.87;101598.47;5067867;28;20024;-82
2022/08/26 09:22:52;;;;;;;4.70;1.60;;;;;;;20.92;73.79;101595.47;5061280;28;20497;-82
2022/08/26 09:25:17;;;;;;;3.30;1.50;;;;;;;20.90;74.44;101594.69;5064096;28;20104;-81
2022/08/26 09:27:46;;;;;;;2.00;1.37;;;;;;;20.90;74.70;101594.69;5052732;28;20033;-82
2022/08/26 09:30:25;;;;;;;3.55;1.70;;;;;;;20.92;74.03;101603.38;5070674;28;20029;-82
2022/08/26 09:33:00;;;;;;;3.53;1.50;;;;;;;20.80;74.62;101602.16;5071634;28;20422;-82
2022/08/26 09:35:30;;;;;;;2.85;1.50;;;;;;;20.82;74.46;101603.81;5072185;28;20029;-81
2022/08/26 09:37:57;;;;;;;1.45;0.80;;;;;;;20.89;74.15;101607.00;5072409;28;20025;-81
2022/08/26 09:40:34;;;;;;;3.67;1.17;;;;;;;20.92;74.64;101606.88;5075801;28;20537;-83
2022/08/26 09:43:15;;;;;;;1.63;1.05;;;;;;;20.97;74.89;101610.16;5074545;28;20029;-80
2022/08/26 09:45:44;;;;;;;2.35;1.10;;;;;;;21.04;74.25;101604.56;5075532;28;20460;-80
2022/08/26 09:48:10;;;;;;;4.35;1.52;;;;;;;21.00;73.73;101606.50;5075338;28;20033;-80
2022/08/26 09:50:49;;;;;;;4.35;1.48;;;;;;;20.94;73.77;101609.44;5074826;28;20025;-80
2022/08/26 09:53:18;;;;;;;4.15;1.70;;;;;;;20.92;74.03;101604.22;5075431;28;20028;-80
2022/08/26 09:55:46;;;;;;;3.13;1.40;;;;;;;20.86;74.14;101608.94;5075484;28;20032;-81
2022/08/26 09:58:14;;;;;;;3.85;1.52;;;;;;;20.80;74.11;101608.31;5074688;28;20109;-81
2022/08/26 10:00:56;;;;;;;3.05;1.10;;;;;;;20.79;74.47;101606.59;5075512;28;20027;-82
2022/08/26 10:03:28;;;;;;;2.65;1.20;;;;;;;20.80;74.39;101613.59;5075508;28;20037;-81
2022/08/26 10:05:58;;;;;;;3.45;1.40;;;;;;;20.81;74.61;101603.88;5068365;28;20536;-81
2022/08/26 10:08:45;;;;;;;1.75;1.02;;;;;;;20.78;74.47;101606.66;5074568;28;20170;-80
2022/08/26 10:11:17;;;;;;;1.40;1.08;;;;;;;20.80;74.79;101616.22;5073886;28;20024;-82
2022/08/26 10:13:49;;;;;;;1.02;0.50;;;;;;;20.83;74.43;101609.94;5075378;28;20380;-85
2022/08/26 10:16:21;;;;;;;2.83;1.10;;;;;;;20.82;73.81;101610.88;5073644;28;20036;-83
2022/08/26 10:18:55;;;;;;;3.42;1.02;;;;;;;20.81;74.42;101614.44;5073186;28;20025;-83
2022/08/26 10:21:29;;;;;;;2.67;1.02;;;;;;;20.77;74.17;101615.50;5073716;28;20058;-83
2022/08/26 10:23:58;;;;;;;3.72;1.30;;;;;;;20.65;73.78;101615.13;5073157;28;20028;-83
2022/08/26 10:26:48;;;;;;;4.28;1.60;;;;;;;20.59;74.07;101614.53;5072363;28;20511;-83
2022/08/26 10:29:38;;;;;;;3.47;1.35;;;;;;;20.60;74.26;101610.97;5073442;28;20025;-83
2022/08/26 10:32:12;;;;;;;3.97;1.33;;;;;;;20.57;74.13;101611.09;5064794;28;20485;-83
2022/08/26 10:34:38;;;;;;;2.10;0.80;;;;;;;20.59;73.98;101614.53;5074637;28;20484;-83
2022/08/26 10:37:12;;;;;;;0.97;0.77;;;;;;;20.66;73.66;101613.31;5074446;28;20037;-86
2022/08/26 10:40:22;;;;;;;3.88;1.25;;;;;;;20.70;73.26;101609.63;5075234;28;20051;-90
2022/08/26 10:42:56;;;;;;;1.67;0.80;;;;;;;20.77;73.78;101604.97;5030997;28;20028;-89
2022/08/26 10:45:26;;;;;;;0.60;0.60;;;;;;;20.84;73.67;101606.38;5075588;28;20008;-90
2022/08/26 10:48:00;;;;;;;1.88;0.80;;;;;;;20.92;73.63;101603.38;5074385;28;20119;-83
2022/08/26 10:50:36;;;;;;;3.00;1.10;;;;;;;20.94;72.85;101607.66;5075038;28;20535;-84
2022/08/26 10:53:38;;;;;;;2.65;1.00;;;;;;;20.96;73.65;101602.28;5074476;28;20025;-84
2022/08/26 10:56:31;;;;;;;1.35;0.77;;;;;;;20.98;73.75;101600.44;5074037;28;20484;-84
2022/08/26 10:59:12;;;;;;;1.13;0.85;;;;;;;21.04;73.20;101609.84;5074045;28;20475;-84
2022/08/26 11:02:01;;;;;;;3.47;1.05;;;;;;;21.01;72.13;101608.22;5073804;28;20127;-85
2022/08/26 11:04:29;;;;;;;3.63;1.40;;;;;;;20.94;71.84;101612.94;5074454;28;20127;-85
2022/08/26 11:07:32;;;;;;;3.42;1.42;;;;;;;20.83;72.58;101607.31;5073819;28;20036;-85
2022/08/26 11:10:14;;;;;;;4.65;1.55;;;;;;;20.80;72.80;101613.59;5074121;28;20115;-84
2022/08/26 11:12:40;;;;;;;3.03;1.30;;;;;;;20.75;73.22;101614.72;5074279;28;20024;-85
2022/08/26 11:15:11;;;;;;;2.65;1.20;;;;;;;20.77;73.26;101615.50;5073183;28;20388;-85
2022/08/26 11:17:42;;;;;;;1.77;0.93;;;;;;;20.81;73.48;101615.31;5074382;28;20036;-84
2022/08/26 11:20:08;;;;;;;0.88;0.85;;;;;;;20.88;73.54;101612.34;5074127;28;20025;-85
2022/08/26 11:22:37;;;;;;;1.08;0.73;;;;;;;20.94;72.97;101612.09;5073552;28;20488;-85
2022/08/26 11:25:08;;;;;;;2.92;1.25;;;;;;;20.91;71.95;101613.06;5073744;28;20051;-85
2022/08/26 11:27:33;;;;;;;2.90;1.58;;;;;;;20.85;72.33;101613.38;5073749;28;20178;-85
2022/08/26 11:30:11;;;;;;;4.70;1.60;;;;;;;20.71;72.69;101606.06;5073002;28;20095;-85
2022/08/26 11:32:37;;;;;;;3.03;1.42;;;;;;;20.76;73.28;101606.72;5073938;28;20024;-84
2022/08/26 11:35:10;;;;;;;3.58;1.50;;;;;;;20.80;73.48;101608.31;5073554;28;20039;-85
2022/08/26 11:37:44;;;;;;;2.08;1.33;;;;;;;20.86;73.21;101603.66;5072971;28;20025;-85
2022/08/26 11:40:16;;;;;;;2.95;1.35;;;;;;;20.86;72.59;101612.44;5073451;28;20111;-84